Fougamou Airport


Codes: FOGF/FOU
Name: Fougamou Airport
City: Fougamou
Country: Gabon
Elevation: 263 ft.

Photos at Fougamou Airport


   Photos courtesy of SpottingLog. You can add your own sightings and photos by signing up for a free trial today.



No photos found.

Weather at Fougamou Airport


Time (UTC)DescriptionTempratureWindCloud coverageVisibilityPressureHumidity
21-Jun-2024 12:00Broken Clouds29°C2 mph, NW84%10000m1012hPa66%
21-Jun-2024 15:00Overcast Clouds30°C2 mph, NW87%10000m1011hPa64%
21-Jun-2024 18:00Light Rain26°C4 mph, W79%10000m1012hPa83%
21-Jun-2024 21:00Light Rain23°C2 mph, W35%10000m1014hPa95%
22-Jun-2024 00:00Scattered Clouds22°C2 mph, SW41%10000m1013hPa97%
22-Jun-2024 03:00Broken Clouds21°C2 mph, SW59%10000m1013hPa97%
22-Jun-2024 06:00Broken Clouds22°C2 mph, SW63%10000m1015hPa95%
22-Jun-2024 09:00Overcast Clouds24°C2 mph, S88%10000m1016hPa81%
22-Jun-2024 12:00Overcast Clouds26°C2 mph, SW94%10000m1014hPa74%
22-Jun-2024 15:00Overcast Clouds26°C0 mph, NW100%10000m1012hPa74%
22-Jun-2024 18:00Overcast Clouds23°C2 mph, N89%10000m1013hPa88%
22-Jun-2024 21:00Broken Clouds23°C2 mph, W69%10000m1014hPa91%
23-Jun-2024 00:00Scattered Clouds21°C2 mph, SW47%10000m1014hPa94%
23-Jun-2024 03:00Few Clouds20°C0 mph, NW13%10000m1013hPa95%
23-Jun-2024 06:00Few Clouds21°C0 mph, SW12%10000m1014hPa92%
23-Jun-2024 09:00Few Clouds28°C0 mph, SW12%10000m1014hPa62%
23-Jun-2024 12:00Few Clouds33°C2 mph, SW12%10000m1011hPa48%
23-Jun-2024 15:00Broken Clouds33°C2 mph, S53%10000m1010hPa47%
23-Jun-2024 18:00Broken Clouds27°C2 mph, W58%10000m1011hPa67%
23-Jun-2024 21:00Scattered Clouds24°C2 mph, SW41%10000m1014hPa79%
24-Jun-2024 00:00Few Clouds22°C2 mph, W23%10000m1013hPa86%
24-Jun-2024 03:00Clear Sky21°C2 mph, NW8%10000m1013hPa91%
24-Jun-2024 06:00Few Clouds21°C0 mph, SW17%10000m1014hPa90%
24-Jun-2024 09:00Few Clouds28°C2 mph, W16%10000m1015hPa58%
24-Jun-2024 12:00Few Clouds32°C2 mph, W16%10000m1011hPa47%
24-Jun-2024 15:00Broken Clouds32°C2 mph, W58%10000m1009hPa47%
24-Jun-2024 18:00Broken Clouds27°C2 mph, NW54%10000m1010hPa69%
24-Jun-2024 21:00Few Clouds23°C4 mph, W21%10000m1014hPa77%
25-Jun-2024 00:00Scattered Clouds21°C2 mph, SW30%10000m1014hPa84%
25-Jun-2024 03:00Broken Clouds21°C2 mph, NW81%10000m1013hPa89%
25-Jun-2024 06:00Broken Clouds21°C2 mph, NW79%10000m1014hPa88%
25-Jun-2024 09:00Broken Clouds27°C2 mph, NW68%10000m1014hPa61%
25-Jun-2024 12:00Broken Clouds32°C4 mph, NW55%10000m1011hPa49%
25-Jun-2024 15:00Broken Clouds32°C4 mph, NW69%10000m1009hPa49%
25-Jun-2024 18:00Broken Clouds27°C4 mph, NW84%10000m1010hPa67%
25-Jun-2024 21:00Overcast Clouds24°C4 mph, W100%10000m1013hPa77%
26-Jun-2024 00:00Broken Clouds22°C2 mph, SW84%10000m1013hPa85%
26-Jun-2024 03:00Broken Clouds21°C2 mph, W84%10000m1012hPa88%
26-Jun-2024 06:00Broken Clouds21°C2 mph, NW84%10000m1013hPa87%
26-Jun-2024 09:00Scattered Clouds28°C2 mph, NW46%10000m1014hPa60%